FQIN

Details ICAO FQIN (INH)
Name INHAMBANE
Region Mozambique
Timezone Africa/Maputo (UTC+2.0)
Plans Departing 0
Arriving 4
Stats Elevation 30 ft / 9 m (AMSL)
Location -23.876357° 35.408202°
Runways 2
Magnetic Variation 18.169° W
Sunrise 2017-12-12 02:45:57 UTC / 2017-12-12 04:45:57 Local
Sunset 2017-12-12 16:21:01 UTC / 2017-12-12 18:21:01 Local
Advertisement - Login to hide

Runways

ID Width Length Bearing (true) Bearing (mag) Surface Threshold Offset Overrun Length
06 98 ft / 30 m 2,626 ft / 800 m 46.91° 65.08° Dirt 0 ft / 0 m 0 ft / 0 m
16 98 ft / 30 m 4,937 ft / 1,505 m 149.24° 167.41° Asphalt 0 ft / 0 m 0 ft / 0 m
24 98 ft / 30 m 2,626 ft / 800 m 226.90° 245.07° Dirt 0 ft / 0 m 0 ft / 0 m
34 98 ft / 30 m 4,937 ft / 1,505 m 329.24° 347.41° Asphalt 0 ft / 0 m 0 ft / 0 m

Map

Weather


0- 5 10 15 20 25 30 35+ Temperature / ° C

Clouds and Precipitation
Forecast for 2017-12-12 12:00 UTC. Updated an hour ago

Ground ~20,000 ft ~40,000 ft Winds

METAR

FQIN 121200Z 06015KT 9999 FEW020 29/22 Q1010

TAF

Not found

Frequencies

Tower 118.40 MHz AFIS
Warning: Do not use this data for real-world aviation or navigation. No guarantee of current accuracy is given.